sensor_id;sensor_type;location;lat;lon;timestamp;temperature;humidity
10980;DHT22;5543;51.734;8.744;2023-03-18T00:01:33;9.70;99.90
10980;DHT22;5543;51.734;8.744;2023-03-18T00:04:01;9.70;99.90
10980;DHT22;5543;51.734;8.744;2023-03-18T00:06:30;9.70;99.90
10980;DHT22;5543;51.734;8.744;2023-03-18T00:08:58;9.70;99.90
10980;DHT22;5543;51.734;8.744;2023-03-18T00:11:26;9.70;99.90
10980;DHT22;5543;51.734;8.744;2023-03-18T00:13:54;9.70;99.90
10980;DHT22;5543;51.734;8.744;2023-03-18T00:16:23;9.70;99.90
10980;DHT22;5543;51.734;8.744;2023-03-18T00:18:53;9.70;99.90
10980;DHT22;5543;51.734;8.744;2023-03-18T00:21:21;9.80;99.90
10980;DHT22;5543;51.734;8.744;2023-03-18T00:23:50;9.80;99.90
10980;DHT22;5543;51.734;8.744;2023-03-18T00:26:22;9.80;99.90
10980;DHT22;5543;51.734;8.744;2023-03-18T00:28:50;9.80;99.90
10980;DHT22;5543;51.734;8.744;2023-03-18T00:31:19;9.70;99.90
10980;DHT22;5543;51.734;8.744;2023-03-18T00:33:49;9.80;99.90
10980;DHT22;5543;51.734;8.744;2023-03-18T00:36:19;9.80;99.90
10980;DHT22;5543;51.734;8.744;2023-03-18T00:38:53;9.70;99.90
10980;DHT22;5543;51.734;8.744;2023-03-18T00:41:24;9.60;99.90
10980;DHT22;5543;51.734;8.744;2023-03-18T00:43:53;9.60;99.90
10980;DHT22;5543;51.734;8.744;2023-03-18T00:46:23;9.50;99.90
10980;DHT22;5543;51.734;8.744;2023-03-18T00:48:55;9.50;99.90
10980;DHT22;5543;51.734;8.744;2023-03-18T00:51:27;9.60;99.90
10980;DHT22;5543;51.734;8.744;2023-03-18T00:53:59;9.60;99.90
10980;DHT22;5543;51.734;8.744;2023-03-18T00:56:29;9.60;99.90
10980;DHT22;5543;51.734;8.744;2023-03-18T00:58:57;9.60;99.90
10980;DHT22;5543;51.734;8.744;2023-03-18T01:01:27;9.70;99.90
10980;DHT22;5543;51.734;8.744;2023-03-18T01:03:57;9.70;99.90
10980;DHT22;5543;51.734;8.744;2023-03-18T01:06:27;9.70;99.90
10980;DHT22;5543;51.734;8.744;2023-03-18T01:08:56;9.70;99.90
10980;DHT22;5543;51.734;8.744;2023-03-18T01:11:27;9.70;99.90
10980;DHT22;5543;51.734;8.744;2023-03-18T01:13:56;9.70;99.90
10980;DHT22;5543;51.734;8.744;2023-03-18T01:16:25;9.70;99.90
10980;DHT22;5543;51.734;8.744;2023-03-18T01:18:54;9.50;99.90
10980;DHT22;5543;51.734;8.744;2023-03-18T01:21:23;9.70;99.90
10980;DHT22;5543;51.734;8.744;2023-03-18T01:23:52;9.60;99.90
10980;DHT22;5543;51.734;8.744;2023-03-18T01:26:20;9.90;99.90
10980;DHT22;5543;51.734;8.744;2023-03-18T01:28:48;9.70;99.90
10980;DHT22;5543;51.734;8.744;2023-03-18T01:31:17;9.70;99.90
10980;DHT22;5543;51.734;8.744;2023-03-18T01:33:46;9.90;99.90
10980;DHT22;5543;51.734;8.744;2023-03-18T01:36:14;9.80;99.90
10980;DHT22;5543;51.734;8.744;2023-03-18T01:38:44;9.80;99.90
10980;DHT22;5543;51.734;8.744;2023-03-18T01:41:13;9.80;99.90
10980;DHT22;5543;51.734;8.744;2023-03-18T01:43:43;9.90;99.90
10980;DHT22;5543;51.734;8.744;2023-03-18T01:46:31;9.90;99.90
10980;DHT22;5543;51.734;8.744;2023-03-18T01:49:01;10.00;99.90
10980;DHT22;5543;51.734;8.744;2023-03-18T01:51:29;10.00;99.90
10980;DHT22;5543;51.734;8.744;2023-03-18T01:54:02;10.10;99.90
10980;DHT22;5543;51.734;8.744;2023-03-18T01:56:33;10.10;99.90
10980;DHT22;5543;51.734;8.744;2023-03-18T01:59:04;10.00;99.90
10980;DHT22;5543;51.734;8.744;2023-03-18T02:01:37;10.00;99.90
10980;DHT22;5543;51.734;8.744;2023-03-18T02:04:08;10.10;99.90
10980;DHT22;5543;51.734;8.744;2023-03-18T02:06:37;10.10;99.90
10980;DHT22;5543;51.734;8.744;2023-03-18T02:09:06;10.10;99.90
10980;DHT22;5543;51.734;8.744;2023-03-18T02:11:37;10.10;99.90
10980;DHT22;5543;51.734;8.744;2023-03-18T02:14:09;10.20;99.90
10980;DHT22;5543;51.734;8.744;2023-03-18T02:16:42;10.30;99.90
10980;DHT22;5543;51.734;8.744;2023-03-18T02:19:21;10.30;99.90
10980;DHT22;5543;51.734;8.744;2023-03-18T02:21:56;10.40;99.90
10980;DHT22;5543;51.734;8.744;2023-03-18T02:24:34;10.50;99.90
10980;DHT22;5543;51.734;8.744;2023-03-18T02:27:14;10.50;99.90
10980;DHT22;5543;51.734;8.744;2023-03-18T02:29:43;10.50;99.90
10980;DHT22;5543;51.734;8.744;2023-03-18T02:32:13;10.50;99.90
10980;DHT22;5543;51.734;8.744;2023-03-18T02:34:42;10.60;99.90
10980;DHT22;5543;51.734;8.744;2023-03-18T02:37:11;10.60;99.90
10980;DHT22;5543;51.734;8.744;2023-03-18T02:39:39;10.70;99.90
10980;DHT22;5543;51.734;8.744;2023-03-18T02:42:11;10.70;99.90
10980;DHT22;5543;51.734;8.744;2023-03-18T02:44:42;10.70;99.90
10980;DHT22;5543;51.734;8.744;2023-03-18T02:47:13;10.70;99.90
10980;DHT22;5543;51.734;8.744;2023-03-18T02:49:44;10.80;99.90
10980;DHT22;5543;51.734;8.744;2023-03-18T02:52:12;10.70;99.90
10980;DHT22;5543;51.734;8.744;2023-03-18T02:54:40;10.70;99.90
10980;DHT22;5543;51.734;8.744;2023-03-18T02:57:08;10.80;99.90
10980;DHT22;5543;51.734;8.744;2023-03-18T02:59:38;10.70;99.90
10980;DHT22;5543;51.734;8.744;2023-03-18T03:02:06;10.80;99.90
10980;DHT22;5543;51.734;8.744;2023-03-18T03:04:34;10.80;99.90
10980;DHT22;5543;51.734;8.744;2023-03-18T03:07:02;10.90;99.90
10980;DHT22;5543;51.734;8.744;2023-03-18T03:09:30;10.90;99.90
10980;DHT22;5543;51.734;8.744;2023-03-18T03:11:58;10.90;99.90
10980;DHT22;5543;51.734;8.744;2023-03-18T03:14:26;10.90;99.90
10980;DHT22;5543;51.734;8.744;2023-03-18T03:16:56;10.90;99.90
10980;DHT22;5543;51.734;8.744;2023-03-18T03:19:24;10.80;99.90
10980;DHT22;5543;51.734;8.744;2023-03-18T03:21:52;10.80;99.90
10980;DHT22;5543;51.734;8.744;2023-03-18T03:24:20;10.80;99.90
10980;DHT22;5543;51.734;8.744;2023-03-18T03:26:48;10.70;99.90
10980;DHT22;5543;51.734;8.744;2023-03-18T03:29:16;10.80;99.90
10980;DHT22;5543;51.734;8.744;2023-03-18T03:31:45;10.90;99.90
10980;DHT22;5543;51.734;8.744;2023-03-18T03:34:15;10.90;99.90
10980;DHT22;5543;51.734;8.744;2023-03-18T03:36:43;10.90;99.90
10980;DHT22;5543;51.734;8.744;2023-03-18T03:39:11;11.00;99.90
10980;DHT22;5543;51.734;8.744;2023-03-18T03:41:40;11.00;99.90
10980;DHT22;5543;51.734;8.744;2023-03-18T03:44:08;11.00;99.90
10980;DHT22;5543;51.734;8.744;2023-03-18T03:46:37;11.00;99.90
10980;DHT22;5543;51.734;8.744;2023-03-18T03:49:05;10.90;99.90
10980;DHT22;5543;51.734;8.744;2023-03-18T03:51:34;10.90;99.90
10980;DHT22;5543;51.734;8.744;2023-03-18T03:54:03;10.90;99.90
10980;DHT22;5543;51.734;8.744;2023-03-18T03:56:31;10.90;99.90
10980;DHT22;5543;51.734;8.744;2023-03-18T03:58:59;10.80;99.90
10980;DHT22;5543;51.734;8.744;2023-03-18T04:01:27;10.90;99.90
10980;DHT22;5543;51.734;8.744;2023-03-18T04:03:55;10.70;99.90
10980;DHT22;5543;51.734;8.744;2023-03-18T04:06:23;10.70;99.90
10980;DHT22;5543;51.734;8.744;2023-03-18T04:08:52;10.70;99.90
10980;DHT22;5543;51.734;8.744;2023-03-18T04:11:21;10.60;99.90
10980;DHT22;5543;51.734;8.744;2023-03-18T04:13:49;10.60;99.90
10980;DHT22;5543;51.734;8.744;2023-03-18T04:16:17;10.50;99.90
10980;DHT22;5543;51.734;8.744;2023-03-18T04:18:45;10.40;99.90
10980;DHT22;5543;51.734;8.744;2023-03-18T04:21:13;10.40;99.90
10980;DHT22;5543;51.734;8.744;2023-03-18T04:23:42;10.30;99.90
10980;DHT22;5543;51.734;8.744;2023-03-18T04:26:11;10.20;99.90
10980;DHT22;5543;51.734;8.744;2023-03-18T04:28:39;10.20;99.90
10980;DHT22;5543;51.734;8.744;2023-03-18T04:31:07;10.10;99.90
10980;DHT22;5543;51.734;8.744;2023-03-18T04:33:35;10.00;99.90
10980;DHT22;5543;51.734;8.744;2023-03-18T04:36:04;10.00;99.90
10980;DHT22;5543;51.734;8.744;2023-03-18T04:38:33;9.90;99.90
10980;DHT22;5543;51.734;8.744;2023-03-18T04:41:01;9.80;99.90
10980;DHT22;5543;51.734;8.744;2023-03-18T04:43:30;9.60;99.90
10980;DHT22;5543;51.734;8.744;2023-03-18T04:45:58;9.50;99.90
10980;DHT22;5543;51.734;8.744;2023-03-18T04:48:26;9.40;99.90
10980;DHT22;5543;51.734;8.744;2023-03-18T04:50:54;9.60;99.90
10980;DHT22;5543;51.734;8.744;2023-03-18T04:53:24;9.60;99.90
10980;DHT22;5543;51.734;8.744;2023-03-18T04:55:52;9.60;99.90
10980;DHT22;5543;51.734;8.744;2023-03-18T04:58:20;9.50;99.90
10980;DHT22;5543;51.734;8.744;2023-03-18T05:00:50;9.30;99.90
10980;DHT22;5543;51.734;8.744;2023-03-18T05:03:19;9.20;99.90
10980;DHT22;5543;51.734;8.744;2023-03-18T05:05:47;9.10;99.90
10980;DHT22;5543;51.734;8.744;2023-03-18T05:08:16;9.00;99.90
10980;DHT22;5543;51.734;8.744;2023-03-18T05:10:44;8.90;99.90
10980;DHT22;5543;51.734;8.744;2023-03-18T05:13:13;8.80;99.90
10980;DHT22;5543;51.734;8.744;2023-03-18T05:15:41;8.60;99.90
10980;DHT22;5543;51.734;8.744;2023-03-18T05:18:11;8.60;99.90
10980;DHT22;5543;51.734;8.744;2023-03-18T05:20:39;8.50;99.90
10980;DHT22;5543;51.734;8.744;2023-03-18T05:23:07;8.50;99.90
10980;DHT22;5543;51.734;8.744;2023-03-18T05:25:36;8.50;99.90
10980;DHT22;5543;51.734;8.744;2023-03-18T05:28:04;8.40;99.90
10980;DHT22;5543;51.734;8.744;2023-03-18T05:30:37;8.30;99.90
10980;DHT22;5543;51.734;8.744;2023-03-18T05:33:06;8.20;99.90
10980;DHT22;5543;51.734;8.744;2023-03-18T05:35:35;8.20;99.90
10980;DHT22;5543;51.734;8.744;2023-03-18T05:38:05;8.20;99.90
10980;DHT22;5543;51.734;8.744;2023-03-18T05:40:33;8.30;99.90
10980;DHT22;5543;51.734;8.744;2023-03-18T05:43:01;8.30;99.90
10980;DHT22;5543;51.734;8.744;2023-03-18T05:45:30;8.30;99.90
10980;DHT22;5543;51.734;8.744;2023-03-18T05:47:58;8.20;99.90
10980;DHT22;5543;51.734;8.744;2023-03-18T05:50:27;8.40;99.90
10980;DHT22;5543;51.734;8.744;2023-03-18T05:52:57;8.00;99.90
10980;DHT22;5543;51.734;8.744;2023-03-18T05:55:25;8.10;99.90
10980;DHT22;5543;51.734;8.744;2023-03-18T05:57:54;8.20;99.90
10980;DHT22;5543;51.734;8.744;2023-03-18T06:00:22;8.60;99.90
10980;DHT22;5543;51.734;8.744;2023-03-18T06:02:51;8.60;99.90
10980;DHT22;5543;51.734;8.744;2023-03-18T06:05:20;8.70;99.90
10980;DHT22;5543;51.734;8.744;2023-03-18T06:07:49;8.80;99.90
10980;DHT22;5543;51.734;8.744;2023-03-18T06:10:19;8.90;99.90
10980;DHT22;5543;51.734;8.744;2023-03-18T06:12:47;9.00;99.90
10980;DHT22;5543;51.734;8.744;2023-03-18T06:15:15;9.00;99.90
10980;DHT22;5543;51.734;8.744;2023-03-18T06:17:44;9.20;99.90
10980;DHT22;5543;51.734;8.744;2023-03-18T06:20:14;9.30;99.90
10980;DHT22;5543;51.734;8.744;2023-03-18T06:22:44;9.30;99.90
10980;DHT22;5543;51.734;8.744;2023-03-18T06:25:19;9.20;99.90
10980;DHT22;5543;51.734;8.744;2023-03-18T06:27:47;9.60;99.90
10980;DHT22;5543;51.734;8.744;2023-03-18T06:30:17;9.70;99.90
10980;DHT22;5543;51.734;8.744;2023-03-18T06:32:45;9.80;99.90
10980;DHT22;5543;51.734;8.744;2023-03-18T06:35:14;9.90;99.90
10980;DHT22;5543;51.734;8.744;2023-03-18T06:37:42;10.10;99.90
10980;DHT22;5543;51.734;8.744;2023-03-18T06:40:10;10.20;99.90
10980;DHT22;5543;51.734;8.744;2023-03-18T06:42:40;10.40;99.90
10980;DHT22;5543;51.734;8.744;2023-03-18T06:45:09;10.50;99.90
10980;DHT22;5543;51.734;8.744;2023-03-18T06:47:37;10.50;99.90
10980;DHT22;5543;51.734;8.744;2023-03-18T06:50:07;10.60;99.90
10980;DHT22;5543;51.734;8.744;2023-03-18T06:52:36;10.60;99.90
10980;DHT22;5543;51.734;8.744;2023-03-18T06:55:05;10.70;99.90
10980;DHT22;5543;51.734;8.744;2023-03-18T06:57:33;10.80;99.90
10980;DHT22;5543;51.734;8.744;2023-03-18T07:00:04;10.90;99.90
10980;DHT22;5543;51.734;8.744;2023-03-18T07:02:32;11.10;99.90
10980;DHT22;5543;51.734;8.744;2023-03-18T07:05:02;11.20;99.90
10980;DHT22;5543;51.734;8.744;2023-03-18T07:07:31;11.30;99.90
10980;DHT22;5543;51.734;8.744;2023-03-18T07:09:59;11.40;99.90
10980;DHT22;5543;51.734;8.744;2023-03-18T07:12:28;11.50;99.90
10980;DHT22;5543;51.734;8.744;2023-03-18T07:14:56;11.60;99.90
10980;DHT22;5543;51.734;8.744;2023-03-18T07:17:26;11.80;99.90
10980;DHT22;5543;51.734;8.744;2023-03-18T07:19:55;11.90;99.90
10980;DHT22;5543;51.734;8.744;2023-03-18T07:22:23;12.00;99.90
10980;DHT22;5543;51.734;8.744;2023-03-18T07:24:51;12.20;99.90
10980;DHT22;5543;51.734;8.744;2023-03-18T07:27:20;12.50;99.90
10980;DHT22;5543;51.734;8.744;2023-03-18T07:29:49;12.60;99.90
10980;DHT22;5543;51.734;8.744;2023-03-18T07:32:17;12.80;99.90
10980;DHT22;5543;51.734;8.744;2023-03-18T07:34:47;12.90;99.90
10980;DHT22;5543;51.734;8.744;2023-03-18T07:37:15;13.10;99.90
10980;DHT22;5543;51.734;8.744;2023-03-18T07:39:43;13.20;99.90
10980;DHT22;5543;51.734;8.744;2023-03-18T07:42:12;13.30;99.90
10980;DHT22;5543;51.734;8.744;2023-03-18T07:44:41;13.30;99.90
10980;DHT22;5543;51.734;8.744;2023-03-18T07:47:09;13.30;99.90
10980;DHT22;5543;51.734;8.744;2023-03-18T07:49:37;13.30;99.90
10980;DHT22;5543;51.734;8.744;2023-03-18T07:52:07;13.40;99.90
10980;DHT22;5543;51.734;8.744;2023-03-18T07:54:36;13.50;99.90
10980;DHT22;5543;51.734;8.744;2023-03-18T07:57:04;13.60;99.90
10980;DHT22;5543;51.734;8.744;2023-03-18T07:59:32;13.80;99.90
10980;DHT22;5543;51.734;8.744;2023-03-18T08:02:01;14.20;99.90
10980;DHT22;5543;51.734;8.744;2023-03-18T08:04:30;14.50;99.90
10980;DHT22;5543;51.734;8.744;2023-03-18T08:06:58;14.70;99.90
10980;DHT22;5543;51.734;8.744;2023-03-18T08:09:28;14.60;99.90
10980;DHT22;5543;51.734;8.744;2023-03-18T08:11:56;14.50;99.90
10980;DHT22;5543;51.734;8.744;2023-03-18T08:14:25;14.50;99.90
10980;DHT22;5543;51.734;8.744;2023-03-18T08:16:53;14.30;99.90
10980;DHT22;5543;51.734;8.744;2023-03-18T08:19:21;14.30;99.90
10980;DHT22;5543;51.734;8.744;2023-03-18T08:21:49;14.30;99.90
10980;DHT22;5543;51.734;8.744;2023-03-18T08:24:17;14.30;99.90
10980;DHT22;5543;51.734;8.744;2023-03-18T08:26:47;14.50;99.90
10980;DHT22;5543;51.734;8.744;2023-03-18T08:29:15;14.50;99.90
10980;DHT22;5543;51.734;8.744;2023-03-18T08:31:43;14.50;99.90
10980;DHT22;5543;51.734;8.744;2023-03-18T08:34:11;14.70;99.90
10980;DHT22;5543;51.734;8.744;2023-03-18T08:36:40;14.90;99.90
10980;DHT22;5543;51.734;8.744;2023-03-18T08:39:08;15.20;99.90
10980;DHT22;5543;51.734;8.744;2023-03-18T08:41:37;15.50;99.90
10980;DHT22;5543;51.734;8.744;2023-03-18T08:44:07;15.70;99.90
10980;DHT22;5543;51.734;8.744;2023-03-18T08:46:36;16.00;99.90
10980;DHT22;5543;51.734;8.744;2023-03-18T08:49:05;16.30;99.90
10980;DHT22;5543;51.734;8.744;2023-03-18T08:51:33;16.60;99.90
10980;DHT22;5543;51.734;8.744;2023-03-18T08:54:01;17.40;99.90
10980;DHT22;5543;51.734;8.744;2023-03-18T08:56:30;18.00;99.90
10980;DHT22;5543;51.734;8.744;2023-03-18T08:58:58;18.60;99.90
10980;DHT22;5543;51.734;8.744;2023-03-18T09:01:27;18.50;99.90
10980;DHT22;5543;51.734;8.744;2023-03-18T09:03:56;17.90;99.30
10980;DHT22;5543;51.734;8.744;2023-03-18T09:06:25;18.10;99.80
10980;DHT22;5543;51.734;8.744;2023-03-18T09:08:53;18.00;99.10
10980;DHT22;5543;51.734;8.744;2023-03-18T09:11:22;18.10;99.40
10980;DHT22;5543;51.734;8.744;2023-03-18T09:13:50;18.90;98.80
10980;DHT22;5543;51.734;8.744;2023-03-18T09:16:19;19.30;97.60
10980;DHT22;5543;51.734;8.744;2023-03-18T09:18:49;19.60;97.60
10980;DHT22;5543;51.734;8.744;2023-03-18T09:21:17;19.40;96.80
10980;DHT22;5543;51.734;8.744;2023-03-18T09:23:45;19.10;96.80
10980;DHT22;5543;51.734;8.744;2023-03-18T09:26:13;18.70;97.30
10980;DHT22;5543;51.734;8.744;2023-03-18T09:28:41;18.50;98.50
10980;DHT22;5543;51.734;8.744;2023-03-18T09:31:09;18.50;97.40
10980;DHT22;5543;51.734;8.744;2023-03-18T09:33:40;18.30;97.80
10980;DHT22;5543;51.734;8.744;2023-03-18T09:36:10;18.30;97.60
10980;DHT22;5543;51.734;8.744;2023-03-18T09:38:39;18.50;98.80
10980;DHT22;5543;51.734;8.744;2023-03-18T09:41:20;18.70;98.10
10980;DHT22;5543;51.734;8.744;2023-03-18T09:43:56;18.60;97.60
10980;DHT22;5543;51.734;8.744;2023-03-18T09:46:33;19.50;96.50
10980;DHT22;5543;51.734;8.744;2023-03-18T09:49:25;21.00;96.00
10980;DHT22;5543;51.734;8.744;2023-03-18T09:52:08;22.60;94.40
10980;DHT22;5543;51.734;8.744;2023-03-18T09:54:42;23.70;92.10
10980;DHT22;5543;51.734;8.744;2023-03-18T09:57:18;23.20;91.40
10980;DHT22;5543;51.734;8.744;2023-03-18T09:59:51;24.10;91.90
10980;DHT22;5543;51.734;8.744;2023-03-18T10:02:25;25.60;86.50
10980;DHT22;5543;51.734;8.744;2023-03-18T10:04:56;25.90;84.00
10980;DHT22;5543;51.734;8.744;2023-03-18T10:07:28;25.00;84.80
10980;DHT22;5543;51.734;8.744;2023-03-18T10:10:00;23.90;87.40
10980;DHT22;5543;51.734;8.744;2023-03-18T10:12:34;23.40;88.20
10980;DHT22;5543;51.734;8.744;2023-03-18T10:15:12;22.90;88.40
10980;DHT22;5543;51.734;8.744;2023-03-18T10:17:44;22.90;90.10
10980;DHT22;5543;51.734;8.744;2023-03-18T10:20:17;23.90;86.60
10980;DHT22;5543;51.734;8.744;2023-03-18T10:22:56;24.70;85.50
10980;DHT22;5543;51.734;8.744;2023-03-18T10:25:34;25.80;80.60
10980;DHT22;5543;51.734;8.744;2023-03-18T10:28:17;25.60;78.60
10980;DHT22;5543;51.734;8.744;2023-03-18T10:30:58;24.80;82.60
10980;DHT22;5543;51.734;8.744;2023-03-18T10:33:35;24.70;81.70
10980;DHT22;5543;51.734;8.744;2023-03-18T10:36:10;25.40;82.40
10980;DHT22;5543;51.734;8.744;2023-03-18T10:38:42;25.40;76.80
10980;DHT22;5543;51.734;8.744;2023-03-18T10:41:18;24.40;78.00
10980;DHT22;5543;51.734;8.744;2023-03-18T10:43:52;23.70;80.60
10980;DHT22;5543;51.734;8.744;2023-03-18T10:46:22;23.40;81.90
10980;DHT22;5543;51.734;8.744;2023-03-18T10:48:53;23.80;80.00
10980;DHT22;5543;51.734;8.744;2023-03-18T10:51:28;24.10;79.80
10980;DHT22;5543;51.734;8.744;2023-03-18T10:54:07;23.70;78.90
10980;DHT22;5543;51.734;8.744;2023-03-18T10:56:37;23.40;80.80
10980;DHT22;5543;51.734;8.744;2023-03-18T10:59:11;22.90;81.40
10980;DHT22;5543;51.734;8.744;2023-03-18T11:01:42;22.60;82.80
10980;DHT22;5543;51.734;8.744;2023-03-18T11:04:14;22.60;81.10
10980;DHT22;5543;51.734;8.744;2023-03-18T11:06:46;22.30;82.20
10980;DHT22;5543;51.734;8.744;2023-03-18T11:09:18;22.40;83.10
10980;DHT22;5543;51.734;8.744;2023-03-18T11:11:49;22.80;81.30
10980;DHT22;5543;51.734;8.744;2023-03-18T11:14:28;23.00;80.50
10980;DHT22;5543;51.734;8.744;2023-03-18T11:16:58;23.20;81.10
10980;DHT22;5543;51.734;8.744;2023-03-18T11:19:29;22.90;81.60
10980;DHT22;5543;51.734;8.744;2023-03-18T11:22:14;22.80;80.70
10980;DHT22;5543;51.734;8.744;2023-03-18T11:24:46;22.40;81.70
10980;DHT22;5543;51.734;8.744;2023-03-18T11:27:33;22.10;82.40
10980;DHT22;5543;51.734;8.744;2023-03-18T11:30:10;21.60;84.80
10980;DHT22;5543;51.734;8.744;2023-03-18T11:32:52;21.60;84.30
10980;DHT22;5543;51.734;8.744;2023-03-18T11:35:22;21.50;87.00
10980;DHT22;5543;51.734;8.744;2023-03-18T11:37:51;21.50;85.70
10980;DHT22;5543;51.734;8.744;2023-03-18T11:40:25;21.40;84.20
10980;DHT22;5543;51.734;8.744;2023-03-18T11:42:55;21.10;85.90
10980;DHT22;5543;51.734;8.744;2023-03-18T11:45:40;20.90;84.80
10980;DHT22;5543;51.734;8.744;2023-03-18T11:48:15;20.60;86.00
10980;DHT22;5543;51.734;8.744;2023-03-18T11:54:28;20.50;87.20
10980;DHT22;5543;51.734;8.744;2023-03-18T11:57:07;20.40;87.20
10980;DHT22;5543;51.734;8.744;2023-03-18T11:59:49;20.20;89.10
10980;DHT22;5543;51.734;8.744;2023-03-18T12:05:27;20.30;87.70
10980;DHT22;5543;51.734;8.744;2023-03-18T12:08:04;20.40;89.20
10980;DHT22;5543;51.734;8.744;2023-03-18T12:10:38;20.50;88.60
10980;DHT22;5543;51.734;8.744;2023-03-18T12:13:17;20.60;88.30
10980;DHT22;5543;51.734;8.744;2023-03-18T12:15:53;20.50;86.80
10980;DHT22;5543;51.734;8.744;2023-03-18T12:18:37;20.70;88.30
10980;DHT22;5543;51.734;8.744;2023-03-18T12:21:33;20.80;87.40
10980;DHT22;5543;51.734;8.744;2023-03-18T12:24:15;20.70;87.20
10980;DHT22;5543;51.734;8.744;2023-03-18T12:26:54;20.60;86.80
10980;DHT22;5543;51.734;8.744;2023-03-18T12:29:37;20.40;87.60
10980;DHT22;5543;51.734;8.744;2023-03-18T12:32:18;20.40;89.30
10980;DHT22;5543;51.734;8.744;2023-03-18T12:35:06;20.20;89.40
10980;DHT22;5543;51.734;8.744;2023-03-18T12:37:49;20.40;88.50
10980;DHT22;5543;51.734;8.744;2023-03-18T12:40:28;20.20;90.40
10980;DHT22;5543;51.734;8.744;2023-03-18T12:46:00;20.40;90.30
10980;DHT22;5543;51.734;8.744;2023-03-18T12:48:33;20.50;88.60
10980;DHT22;5543;51.734;8.744;2023-03-18T12:51:12;20.70;88.30
10980;DHT22;5543;51.734;8.744;2023-03-18T12:53:43;20.70;88.80
10980;DHT22;5543;51.734;8.744;2023-03-18T12:56:16;21.00;88.50
10980;DHT22;5543;51.734;8.744;2023-03-18T12:58:49;21.10;88.50
10980;DHT22;5543;51.734;8.744;2023-03-18T13:01:23;21.50;87.80
10980;DHT22;5543;51.734;8.744;2023-03-18T13:03:56;21.60;85.70
10980;DHT22;5543;51.734;8.744;2023-03-18T13:06:31;21.20;86.00
10980;DHT22;5543;51.734;8.744;2023-03-18T13:09:10;21.30;89.20
10980;DHT22;5543;51.734;8.744;2023-03-18T13:12:05;20.90;86.50
10980;DHT22;5543;51.734;8.744;2023-03-18T13:14:50;21.10;87.40
10980;DHT22;5543;51.734;8.744;2023-03-18T13:17:26;21.40;88.10
10980;DHT22;5543;51.734;8.744;2023-03-18T13:19:57;21.60;88.20
10980;DHT22;5543;51.734;8.744;2023-03-18T13:22:47;21.80;88.00
10980;DHT22;5543;51.734;8.744;2023-03-18T13:25:26;22.10;87.10
10980;DHT22;5543;51.734;8.744;2023-03-18T13:28:12;22.30;86.80
10980;DHT22;5543;51.734;8.744;2023-03-18T13:30:55;22.50;85.20
10980;DHT22;5543;51.734;8.744;2023-03-18T13:34:01;22.30;86.60
10980;DHT22;5543;51.734;8.744;2023-03-18T13:39:44;21.20;86.80
10980;DHT22;5543;51.734;8.744;2023-03-18T13:42:20;21.10;87.20
10980;DHT22;5543;51.734;8.744;2023-03-18T13:45:05;20.50;87.10
10980;DHT22;5543;51.734;8.744;2023-03-18T13:47:37;20.80;89.40
10980;DHT22;5543;51.734;8.744;2023-03-18T13:50:30;21.40;87.10
10980;DHT22;5543;51.734;8.744;2023-03-18T13:52:59;21.80;87.30
10980;DHT22;5543;51.734;8.744;2023-03-18T13:55:33;22.10;86.60
10980;DHT22;5543;51.734;8.744;2023-03-18T13:58:22;22.30;86.00
10980;DHT22;5543;51.734;8.744;2023-03-18T14:01:13;21.70;85.00
10980;DHT22;5543;51.734;8.744;2023-03-18T14:04:01;21.40;85.70
10980;DHT22;5543;51.734;8.744;2023-03-18T14:06:55;21.10;85.30
10980;DHT22;5543;51.734;8.744;2023-03-18T14:09:34;20.80;86.90
10980;DHT22;5543;51.734;8.744;2023-03-18T14:12:18;20.30;87.70
10980;DHT22;5543;51.734;8.744;2023-03-18T14:14:55;20.00;89.10
10980;DHT22;5543;51.734;8.744;2023-03-18T14:17:43;19.70;90.00
10980;DHT22;5543;51.734;8.744;2023-03-18T14:20:22;19.30;88.90
10980;DHT22;5543;51.734;8.744;2023-03-18T14:22:53;19.10;90.00
10980;DHT22;5543;51.734;8.744;2023-03-18T14:25:38;19.00;90.50
10980;DHT22;5543;51.734;8.744;2023-03-18T14:28:20;19.00;89.70
10980;DHT22;5543;51.734;8.744;2023-03-18T14:33:51;19.10;90.20
10980;DHT22;5543;51.734;8.744;2023-03-18T14:36:38;19.00;90.20
10980;DHT22;5543;51.734;8.744;2023-03-18T14:39:12;18.80;90.60
10980;DHT22;5543;51.734;8.744;2023-03-18T14:41:44;18.90;90.40
10980;DHT22;5543;51.734;8.744;2023-03-18T14:44:21;19.10;90.40
10980;DHT22;5543;51.734;8.744;2023-03-18T14:46:54;19.00;90.40
10980;DHT22;5543;51.734;8.744;2023-03-18T14:49:43;18.80;90.50
10980;DHT22;5543;51.734;8.744;2023-03-18T14:52:22;18.80;90.50
10980;DHT22;5543;51.734;8.744;2023-03-18T14:54:55;18.60;90.50
10980;DHT22;5543;51.734;8.744;2023-03-18T14:57:24;18.70;91.00
10980;DHT22;5543;51.734;8.744;2023-03-18T14:59:52;18.70;90.90
10980;DHT22;5543;51.734;8.744;2023-03-18T15:02:23;18.90;91.20
10980;DHT22;5543;51.734;8.744;2023-03-18T15:04:54;19.20;90.50
10980;DHT22;5543;51.734;8.744;2023-03-18T15:07:32;19.40;90.40
10980;DHT22;5543;51.734;8.744;2023-03-18T15:10:06;19.40;90.00
10980;DHT22;5543;51.734;8.744;2023-03-18T15:12:36;19.60;90.70
10980;DHT22;5543;51.734;8.744;2023-03-18T15:15:05;19.70;89.70
10980;DHT22;5543;51.734;8.744;2023-03-18T15:17:35;19.70;90.00
10980;DHT22;5543;51.734;8.744;2023-03-18T15:20:04;19.80;89.50
10980;DHT22;5543;51.734;8.744;2023-03-18T15:22:33;19.70;89.80
10980;DHT22;5543;51.734;8.744;2023-03-18T15:25:05;19.50;89.80
10980;DHT22;5543;51.734;8.744;2023-03-18T15:27:34;19.10;89.40
10980;DHT22;5543;51.734;8.744;2023-03-18T15:30:05;19.00;90.10
10980;DHT22;5543;51.734;8.744;2023-03-18T15:32:43;18.80;90.20
10980;DHT22;5543;51.734;8.744;2023-03-18T15:35:14;18.70;90.80
10980;DHT22;5543;51.734;8.744;2023-03-18T15:37:44;18.70;90.40
10980;DHT22;5543;51.734;8.744;2023-03-18T15:40:31;18.80;90.40
10980;DHT22;5543;51.734;8.744;2023-03-18T15:43:14;18.70;90.90
10980;DHT22;5543;51.734;8.744;2023-03-18T15:45:45;18.60;90.80
10980;DHT22;5543;51.734;8.744;2023-03-18T15:48:21;18.50;91.00
10980;DHT22;5543;51.734;8.744;2023-03-18T15:50:52;18.40;90.60
10980;DHT22;5543;51.734;8.744;2023-03-18T15:53:23;18.20;90.80
10980;DHT22;5543;51.734;8.744;2023-03-18T15:55:53;18.00;91.40
10980;DHT22;5543;51.734;8.744;2023-03-18T15:58:25;17.80;91.60
10980;DHT22;5543;51.734;8.744;2023-03-18T16:00:54;17.60;91.90
10980;DHT22;5543;51.734;8.744;2023-03-18T16:03:25;17.40;92.50
10980;DHT22;5543;51.734;8.744;2023-03-18T16:05:54;17.20;92.50
10980;DHT22;5543;51.734;8.744;2023-03-18T16:08:24;17.10;92.50
10980;DHT22;5543;51.734;8.744;2023-03-18T16:10:54;16.90;93.20
10980;DHT22;5543;51.734;8.744;2023-03-18T16:13:26;16.80;92.80
10980;DHT22;5543;51.734;8.744;2023-03-18T16:15:55;16.90;92.50
10980;DHT22;5543;51.734;8.744;2023-03-18T16:18:24;17.00;91.80
10980;DHT22;5543;51.734;8.744;2023-03-18T16:20:52;17.00;92.50
10980;DHT22;5543;51.734;8.744;2023-03-18T16:23:21;17.00;92.90
10980;DHT22;5543;51.734;8.744;2023-03-18T16:25:51;16.90;93.00
10980;DHT22;5543;51.734;8.744;2023-03-18T16:28:23;16.90;92.80
10980;DHT22;5543;51.734;8.744;2023-03-18T16:30:51;16.90;92.50
10980;DHT22;5543;51.734;8.744;2023-03-18T16:33:22;16.80;92.70
10980;DHT22;5543;51.734;8.744;2023-03-18T16:35:54;16.70;93.20